aviador You're here:

KLSF Decoded Metar

FORT BENNING in GA, USA
Report Time2018-07-18 10:34:00
UTC Time2018-07-18 10:57:25
Flight Rules ifr IFR
WindCalm
Visibility9999 m
Phenomena:N/A
Clouds:Overcast 005 Hf
Ceiling500 ft
Temp23°C (ISA +8)
Dew Point23°C (100% RH)
QNH1015 hPa
Density Alt1,519 ft
Elevation233 ft
Report Wrong Elevation
Raw Report
KLSF 181034Z AUTO 00000KT 10SM OVC005 23/23 A2996 RMK AO2
SLP148=

Extra information for KLSF:More info

Metar Taf Metar & Taf Last 4 Metars F.Rules Stats Wind Profile Meteogram Temp Stats Airport Information Weather charts Add Link Nearby VenuesMetar ALERT Operation Metar Decoded Social comments

AIRNAV info for KLSF